デンパサール の空港の天気 - METARとTAF

デンパサール国際空港 ( WADD / DPS ) - インドネシア バリ島デンパサール
飛行場実況気象(Metar)
観測時間10/18 11:30 WITA (10/18 03:30 UTC)
風向・風速西 5m/s
視程10km以上
天気現象
全天の4割程度の雲 雲底高度 490m
気温30℃
湿度66%
気圧1013hPa
METARWADD 180330Z 26010KT 9999 SCT016 30/23 Q1013 NOSIG
過去の天気等 Google飛行場航空写真 Wunderground天気予報

過去48時間のMETAR

飛行場予報(TAF)
発表時間: 10/18 07:00 WITA (10/17 23:00 UTC)
予報対象時間: 18日8時 WITA ~ 19日8時 WITA
風向・風速西 5m/s
視程10km以上
全天の4割程度の雲 雲底高度 490m
18日22時 WITA ~ 19日2時 WITA に一時的に
風向・風速不定 3m/s
全天の8割程度の雲 雲底高度 460m
TAF WADD 172300Z 1800/1900 26010KT 9999 SCT016
TEMPO 1814/1818 VRB05KT BKN015